McCarran International Airport
KLAS : now visible

Airfield :











YOU CAN JOIN US ON...

 
LOGIN :

Register | Disclaimer

   EN    FR    IT 

 









Legend :    VFR   Marginal VFR   IFR   Intensive IFR   Very Intensive IFR
Visi :
Ceiling :
>= 8 km
>= 3000ft
5 to 8 km
1000 to 3000 ft
1500m to 5 km
500 to 1000 ft
800 to 1500m
200 to 500 ft
< 800m
< 200 ft
Symbols :   Thunderstorms  Fog  Heavy snow  Heavy precipitations  Wind > 20 kt






- Airport Elevation : 2181 ft
- IATA code : LAS


KLAS - McCarran International

CURRENT METAR :
  • 142056Z 00000KT 10SM FEW065 SCT080 BKN200 15/04 A2980 RMK AO2 SLP083 T01500044 56026

EXPIRED METARs :
  • 141956Z 00000KT 10SM FEW080 BKN200 14/05 A2982 RMK AO2 SLP090 T01440050
  • 141856Z 04004KT 10SM FEW080 BKN200 14/04 A2985 RMK AO2 SLP103 T01390044

TAF KLAS
Valid from the 14 at 21:00 until the 16 at 00:00 UTC


142047Z 1421/1524 02006KT P6SM FEW080 FEW150 BKN200
FM150200 25009KT P6SM BKN070
FM150600 28008KT P6SM VCSH BKN070
FM151200 30012G20KT P6SM FEW050 SCT080
FM151700 31014G22KT P6SM SCT080



MET'MAP, your aeronautical weather chart ! - Copyright ORBIFLY December 2007 - Disclaimer

ORBIFLY MET'MAP TEAM :

Programming & Development : Alexandra Zaïnal
Concept & original design : Baudouin d'Aumeries
Assistance for programming : Marc-Olivier Méhu
Technical & hardware support : Manuel Goepfert

Contact : metmap@orbifly.com




SOURCES & CREDITS :

   NOAA       Earth
Advisory